sensor_id;sensor_type;location;lat;lon;timestamp;P1;P2;P0
53698;PMS7003;39591;53.952;27.612;2022-12-20T00:00:04;14.8;11.4;7.9
53698;PMS7003;39591;53.952;27.612;2022-12-20T00:04:38;12.8;10;6.7
53698;PMS7003;39591;53.952;27.612;2022-12-20T00:09:22;14.7;10.5;7.5
53698;PMS7003;39591;53.952;27.612;2022-12-20T00:15:04;11.7;8.8;6
53698;PMS7003;39591;53.952;27.612;2022-12-20T00:19:26;13.4;9.8;7
53698;PMS7003;39591;53.952;27.612;2022-12-20T00:24:30;11.7;8.8;6
53698;PMS7003;39591;53.952;27.612;2022-12-20T00:29:22;12.4;8.2;5.4
53698;PMS7003;39591;53.952;27.612;2022-12-20T00:35:04;13.3;9.5;6.6
53698;PMS7003;39591;53.952;27.612;2022-12-20T00:39:38;12.2;8.8;6.2
53698;PMS7003;39591;53.952;27.612;2022-12-20T00:44:40;13.8;10.1;7.2
53698;PMS7003;39591;53.952;27.612;2022-12-20T00:49:48;11.8;9.3;6.3
53698;PMS7003;39591;53.952;27.612;2022-12-20T00:54:44;9.3;7.3;4.3
53698;PMS7003;39591;53.952;27.612;2022-12-20T01:00:04;12.6;8.8;6.4
53698;PMS7003;39591;53.952;27.612;2022-12-20T01:04:38;11.5;8.6;6.2
53698;PMS7003;39591;53.952;27.612;2022-12-20T01:09:40;11.7;8.6;5.4
53698;PMS7003;39591;53.952;27.612;2022-12-20T01:14:42;14.3;9.3;6.5
53698;PMS7003;39591;53.952;27.612;2022-12-20T01:19:30;14;9.5;6.5
53698;PMS7003;39591;53.952;27.612;2022-12-20T01:25:04;9.4;6.7;5
53698;PMS7003;39591;53.952;27.612;2022-12-20T01:29:44;11.3;9;6.4
53698;PMS7003;39591;53.952;27.612;2022-12-20T01:34:58;12.5;8.7;6.2
53698;PMS7003;39591;53.952;27.612;2022-12-20T01:39:54;11.1;8.6;6.5
53698;PMS7003;39591;53.952;27.612;2022-12-20T01:45:28;12.1;8.6;5.9
53698;PMS7003;39591;53.952;27.612;2022-12-20T01:50:06;11.2;9.2;6.4
53698;PMS7003;39591;53.952;27.612;2022-12-20T01:54:32;11.6;9.5;6.4
53698;PMS7003;39591;53.952;27.612;2022-12-20T01:59:46;10.9;8.9;6.2
53698;PMS7003;39591;53.952;27.612;2022-12-20T02:04:22;10.9;8.5;5.8
53698;PMS7003;39591;53.952;27.612;2022-12-20T02:09:34;12;8.6;5.8
53698;PMS7003;39591;53.952;27.612;2022-12-20T02:15:10;11.7;8.6;6.4
53698;PMS7003;39591;53.952;27.612;2022-12-20T02:19:29;12.2;8.5;6.2
53698;PMS7003;39591;53.952;27.612;2022-12-20T02:24:52;10.6;8;5.3
53698;PMS7003;39591;53.952;27.612;2022-12-20T02:29:58;10.8;8.9;6.1
53698;PMS7003;39591;53.952;27.612;2022-12-20T02:34:58;9.4;6.7;4.9
53698;PMS7003;39591;53.952;27.612;2022-12-20T02:40:06;11.2;9.2;6.4
53698;PMS7003;39591;53.952;27.612;2022-12-20T02:44:32;11.2;8.8;6
53698;PMS7003;39591;53.952;27.612;2022-12-20T02:49:48;13;9.2;6.2
53698;PMS7003;39591;53.952;27.612;2022-12-20T02:54:54;11.8;9.2;6.7
53698;PMS7003;39591;53.952;27.612;2022-12-20T02:59:35;11.3;9;6.3
53698;PMS7003;39591;53.952;27.612;2022-12-20T03:04:54;11.7;8.2;5.9
53698;PMS7003;39591;53.952;27.612;2022-12-20T03:09:34;10.2;7.7;5.7
53698;PMS7003;39591;53.952;27.612;2022-12-20T03:14:22;10.2;8.1;5.9
53698;PMS7003;39591;53.952;27.612;2022-12-20T03:19:52;12.3;9.2;6.2
53698;PMS7003;39591;53.952;27.612;2022-12-20T03:24:56;13.9;10.1;7.7
53698;PMS7003;39591;53.952;27.612;2022-12-20T03:30:06;13.7;9.7;6.7
53698;PMS7003;39591;53.952;27.612;2022-12-20T03:34:22;11.5;8.7;6.1
53698;PMS7003;39591;53.952;27.612;2022-12-20T03:39:48;11.3;8.2;5.7
53698;PMS7003;39591;53.952;27.612;2022-12-20T03:44:42;11.7;9;7
53698;PMS7003;39591;53.952;27.612;2022-12-20T03:49:34;12.4;9.3;6.7
53698;PMS7003;39591;53.952;27.612;2022-12-20T03:54:56;11.7;9.1;6.4
53698;PMS7003;39591;53.952;27.612;2022-12-20T03:59:48;12;8.3;6.5
53698;PMS7003;39591;53.952;27.612;2022-12-20T04:04:42;13.4;9.9;6.9
53698;PMS7003;39591;53.952;27.612;2022-12-20T04:10:04;13.9;10.5;7.4
53698;PMS7003;39591;53.952;27.612;2022-12-20T04:14:58;13.6;10.6;7.2
53698;PMS7003;39591;53.952;27.612;2022-12-20T04:20:06;9.7;7.8;5.4
53698;PMS7003;39591;53.952;27.612;2022-12-20T04:25:06;14.1;11;7.3
53698;PMS7003;39591;53.952;27.612;2022-12-20T04:29:46;13.9;10;7.3
53698;PMS7003;39591;53.952;27.612;2022-12-20T04:34:32;14.1;11.1;7.5
53698;PMS7003;39591;53.952;27.612;2022-12-20T04:39:34;14.9;12.1;9.1
53698;PMS7003;39591;53.952;27.612;2022-12-20T04:45:08;13.9;11.4;7.7
53698;PMS7003;39591;53.952;27.612;2022-12-20T04:49:46;15;11.4;8
53698;PMS7003;39591;53.952;27.612;2022-12-20T04:54:40;15;11.9;8.7
53698;PMS7003;39591;53.952;27.612;2022-12-20T04:59:54;13.5;9.9;7.3
53698;PMS7003;39591;53.952;27.612;2022-12-20T05:04:58;13.4;10.9;7.6
53698;PMS7003;39591;53.952;27.612;2022-12-20T05:10:08;15;11.8;8
53698;PMS7003;39591;53.952;27.612;2022-12-20T05:14:42;15.2;10.9;8.1
53698;PMS7003;39591;53.952;27.612;2022-12-20T05:19:52;14.6;11.7;8.2
53698;PMS7003;39591;53.952;27.612;2022-12-20T05:24:40;12.8;10.4;7.6
53698;PMS7003;39591;53.952;27.612;2022-12-20T05:29:46;13.7;11;7.8
53698;PMS7003;39591;53.952;27.612;2022-12-20T05:35:06;14.7;12.1;9.3
53698;PMS7003;39591;53.952;27.612;2022-12-20T05:39:46;14.8;11.7;8
53698;PMS7003;39591;53.952;27.612;2022-12-20T05:44:40;14.6;11.7;8.3
53698;PMS7003;39591;53.952;27.612;2022-12-20T05:49:54;15.4;13.5;8.8
53698;PMS7003;39591;53.952;27.612;2022-12-20T05:54:54;16.2;12.8;9.4
53698;PMS7003;39591;53.952;27.612;2022-12-20T06:00:04;15.6;12;8.5
53698;PMS7003;39591;53.952;27.612;2022-12-20T06:04:34;14.1;11.7;8.5
53698;PMS7003;39591;53.952;27.612;2022-12-20T06:09:52;15.3;11.2;7.6
53698;PMS7003;39591;53.952;27.612;2022-12-20T06:14:32;15.8;13.3;9.7
53698;PMS7003;39591;53.952;27.612;2022-12-20T06:19:46;13.2;9.8;6.8
53698;PMS7003;39591;53.952;27.612;2022-12-20T06:25:06;18;14.9;10.5
53698;PMS7003;39591;53.952;27.612;2022-12-20T06:29:46;16.1;12.2;8.1
53698;PMS7003;39591;53.952;27.612;2022-12-20T06:34:32;15;11.8;8.4
53698;PMS7003;39591;53.952;27.612;2022-12-20T06:39:52;16.3;13.7;9.5
53698;PMS7003;39591;53.952;27.612;2022-12-20T06:44:58;15;12.6;9.7
53698;PMS7003;39591;53.952;27.612;2022-12-20T06:50:08;17.5;13.3;9.6
53698;PMS7003;39591;53.952;27.612;2022-12-20T06:54:58;16.6;13;9.5
53698;PMS7003;39591;53.952;27.612;2022-12-20T06:59:52;17.2;14.3;10
53698;PMS7003;39591;53.952;27.612;2022-12-20T07:04:22;17.5;13.4;9.5
53698;PMS7003;39591;53.952;27.612;2022-12-20T07:09:22;16.1;13.1;9.1
53698;PMS7003;39591;53.952;27.612;2022-12-20T07:15:08;17.3;13;9.5
53698;PMS7003;39591;53.952;27.612;2022-12-20T07:19:46;19.7;14.7;10.5
53698;PMS7003;39591;53.952;27.612;2022-12-20T07:24:54;19.1;13.3;9.4
53698;PMS7003;39591;53.952;27.612;2022-12-20T07:30:06;18;14.6;10.5
53698;PMS7003;39591;53.952;27.612;2022-12-20T07:34:58;17.8;13.4;9
53698;PMS7003;39591;53.952;27.612;2022-12-20T07:40:07;16;12.4;8.7
53698;PMS7003;39591;53.952;27.612;2022-12-20T07:44:44;15.6;11.8;8.4
53698;PMS7003;39591;53.952;27.612;2022-12-20T07:49:46;19.4;15.1;10.5
53698;PMS7003;39591;53.952;27.612;2022-12-20T07:54:41;16.9;14;9.9
53698;PMS7003;39591;53.952;27.612;2022-12-20T07:59:23;17;13.5;9.5
53698;PMS7003;39591;53.952;27.612;2022-12-20T08:05:08;17;13;9.7
53698;PMS7003;39591;53.952;27.612;2022-12-20T08:09:42;18.1;14;10.6
53698;PMS7003;39591;53.952;27.612;2022-12-20T08:14:30;18.2;14.4;10.6
53698;PMS7003;39591;53.952;27.612;2022-12-20T08:19:34;17.1;13.1;9.4
53698;PMS7003;39591;53.952;27.612;2022-12-20T08:25:00;16.5;12.8;8.7
53698;PMS7003;39591;53.952;27.612;2022-12-20T08:29:52;21.1;15.9;11.6
53698;PMS7003;39591;53.952;27.612;2022-12-20T08:34:30;20.1;16;11.3
53698;PMS7003;39591;53.952;27.612;2022-12-20T08:40:05;19.9;16;11.3
53698;PMS7003;39591;53.952;27.612;2022-12-20T08:44:56;20;15.8;11.7
53698;PMS7003;39591;53.952;27.612;2022-12-20T08:49:44;18.5;14.6;10.3
53698;PMS7003;39591;53.952;27.612;2022-12-20T08:54:22;19.9;16;11
53698;PMS7003;39591;53.952;27.612;2022-12-20T08:59:46;18.5;14.8;10.4
53698;PMS7003;39591;53.952;27.612;2022-12-20T09:05:06;18.7;15;10.5
53698;PMS7003;39591;53.952;27.612;2022-12-20T09:09:34;22.5;17.6;13.2
53698;PMS7003;39591;53.952;27.612;2022-12-20T09:14:58;18.1;14.8;10.6
53698;PMS7003;39591;53.952;27.612;2022-12-20T09:19:52;19.3;15;11.2
53698;PMS7003;39591;53.952;27.612;2022-12-20T09:24:30;19.1;16.6;11.3
53698;PMS7003;39591;53.952;27.612;2022-12-20T09:30:08;17.5;14.6;10.4
53698;PMS7003;39591;53.952;27.612;2022-12-20T09:34:58;20.1;17.3;12.1
53698;PMS7003;39591;53.952;27.612;2022-12-20T09:39:22;19.5;16.2;11.5
53698;PMS7003;39591;53.952;27.612;2022-12-20T09:44:33;17;14.9;10.6
53698;PMS7003;39591;53.952;27.612;2022-12-20T09:49:47;18.1;15.4;11.3
53698;PMS7003;39591;53.952;27.612;2022-12-20T09:55:12;17.5;14.5;10.9
53698;PMS7003;39591;53.952;27.612;2022-12-20T09:59:34;18.5;14.2;10.8
53698;PMS7003;39591;53.952;27.612;2022-12-20T10:04:48;18.3;14.4;10.4
53698;PMS7003;39591;53.952;27.612;2022-12-20T10:09:29;19.1;15.8;12
53698;PMS7003;39591;53.952;27.612;2022-12-20T10:14:26;19.3;15.9;10.8
53698;PMS7003;39591;53.952;27.612;2022-12-20T10:20:11;19.1;15.1;11.6
53698;PMS7003;39591;53.952;27.612;2022-12-20T10:25:01;19.9;14.3;10
53698;PMS7003;39591;53.952;27.612;2022-12-20T10:29:34;17.1;14.5;10.4
53698;PMS7003;39591;53.952;27.612;2022-12-20T10:34:44;18.9;15.6;11.5
53698;PMS7003;39591;53.952;27.612;2022-12-20T10:39:46;18.2;14.6;10.6
53698;PMS7003;39591;53.952;27.612;2022-12-20T10:45:09;18.3;15.4;11.2
53698;PMS7003;39591;53.952;27.612;2022-12-20T10:49:46;16.2;13;10.1
53698;PMS7003;39591;53.952;27.612;2022-12-20T10:54:58;17.6;14;10.5
53698;PMS7003;39591;53.952;27.612;2022-12-20T10:59:53;17.3;14.5;10.9
53698;PMS7003;39591;53.952;27.612;2022-12-20T11:04:24;17.3;13.1;8.4
53698;PMS7003;39591;53.952;27.612;2022-12-20T11:10:18;18.4;14.9;10.5
53698;PMS7003;39591;53.952;27.612;2022-12-20T11:15:18;19.2;15.4;11.5
53698;PMS7003;39591;53.952;27.612;2022-12-20T11:19:29;19;15.9;12
53698;PMS7003;39591;53.952;27.612;2022-12-20T11:24:44;21.4;16.6;11.5
53698;PMS7003;39591;53.952;27.612;2022-12-20T11:29:50;20;16.2;11.2
53698;PMS7003;39591;53.952;27.612;2022-12-20T11:35:06;18.2;15;10.2
53698;PMS7003;39591;53.952;27.612;2022-12-20T11:39:33;21.2;17.3;12.9
53698;PMS7003;39591;53.952;27.612;2022-12-20T11:44:48;22.3;17.3;12.2
53698;PMS7003;39591;53.952;27.612;2022-12-20T11:49:52;19.2;15.7;11.6
53698;PMS7003;39591;53.952;27.612;2022-12-20T11:54:31;24.4;19.4;13.6
53698;PMS7003;39591;53.952;27.612;2022-12-20T12:00:10;22;18.2;12.9
53698;PMS7003;39591;53.952;27.612;2022-12-20T12:04:58;21.6;18.8;13.4
53698;PMS7003;39591;53.952;27.612;2022-12-20T12:09:23;22.9;19.3;13.9
53698;PMS7003;39591;53.952;27.612;2022-12-20T12:14:44;23.3;18.9;12.9
53698;PMS7003;39591;53.952;27.612;2022-12-20T12:19:47;25.3;19.8;14
53698;PMS7003;39591;53.952;27.612;2022-12-20T12:25:09;20;18.5;13.9
53698;PMS7003;39591;53.952;27.612;2022-12-20T12:29:34;23.5;19.1;13.5
53698;PMS7003;39591;53.952;27.612;2022-12-20T12:35:02;21.6;19.8;14.9
53698;PMS7003;39591;53.952;27.612;2022-12-20T12:54:54;26.6;21.6;15.3
53698;PMS7003;39591;53.952;27.612;2022-12-20T12:59:50;26.6;23;16.6
53698;PMS7003;39591;53.952;27.612;2022-12-20T13:04:58;25.8;20.4;14.1
53698;PMS7003;39591;53.952;27.612;2022-12-20T13:09:42;19.8;15.8;11.4
53698;PMS7003;39591;53.952;27.612;2022-12-20T13:15:35;21.2;17.4;12.7
53698;PMS7003;39591;53.952;27.612;2022-12-20T13:19:29;26.5;22.1;16
53698;PMS7003;39591;53.952;27.612;2022-12-20T13:24:51;25.1;20.9;14.1
53698;PMS7003;39591;53.952;27.612;2022-12-20T13:29:52;27.5;21.4;15.6
53698;PMS7003;39591;53.952;27.612;2022-12-20T13:34:35;25.6;21.1;14.6
53698;PMS7003;39591;53.952;27.612;2022-12-20T13:40:02;22.4;19.2;13.6
53698;PMS7003;39591;53.952;27.612;2022-12-20T13:44:54;25.9;20.8;15.2
53698;PMS7003;39591;53.952;27.612;2022-12-20T13:49:50;26.6;21.7;15.6
53698;PMS7003;39591;53.952;27.612;2022-12-20T13:54:43;23.9;20;14.6
53698;PMS7003;39591;53.952;27.612;2022-12-20T13:59:23;24.7;20.9;15.1
53698;PMS7003;39591;53.952;27.612;2022-12-20T14:05:12;27.7;22.6;15.5
53698;PMS7003;39591;53.952;27.612;2022-12-20T14:09:31;23.6;19.7;14.7
53698;PMS7003;39591;53.952;27.612;2022-12-20T14:14:42;22.6;18.2;13.7
53698;PMS7003;39591;53.952;27.612;2022-12-20T14:20:20;23.2;19.4;13.7
53698;PMS7003;39591;53.952;27.612;2022-12-20T14:24:30;27.5;21.7;16.2
53698;PMS7003;39591;53.952;27.612;2022-12-20T14:30:04;24.9;21.4;15.5
53698;PMS7003;39591;53.952;27.612;2022-12-20T14:34:46;25.2;21.1;15.2
53698;PMS7003;39591;53.952;27.612;2022-12-20T14:39:53;24.5;19.2;13.5
53698;PMS7003;39591;53.952;27.612;2022-12-20T14:44:45;24.8;21;15.6
53698;PMS7003;39591;53.952;27.612;2022-12-20T14:49:46;25.9;21;15.2
53698;PMS7003;39591;53.952;27.612;2022-12-20T14:55:07;25.8;20.1;14.7
53698;PMS7003;39591;53.952;27.612;2022-12-20T14:59:36;23.2;19.2;14.1
53698;PMS7003;39591;53.952;27.612;2022-12-20T15:04:42;24.8;20;15.1
53698;PMS7003;39591;53.952;27.612;2022-12-20T15:09:52;23.7;19.3;13.5
53698;PMS7003;39591;53.952;27.612;2022-12-20T15:14:26;23.4;20;14.6
53698;PMS7003;39591;53.952;27.612;2022-12-20T15:20:07;24.6;20.1;14.4
53698;PMS7003;39591;53.952;27.612;2022-12-20T15:24:56;28.1;23.4;16.9
53698;PMS7003;39591;53.952;27.612;2022-12-20T15:29:54;25.9;20.9;14.9
53698;PMS7003;39591;53.952;27.612;2022-12-20T15:34:44;26.9;21.4;15.5
53698;PMS7003;39591;53.952;27.612;2022-12-20T15:39:48;27.1;22.2;15.8
53698;PMS7003;39591;53.952;27.612;2022-12-20T15:44:50;26.7;22.1;16.5
53698;PMS7003;39591;53.952;27.612;2022-12-20T15:49:23;22.2;18;12.3
53698;PMS7003;39591;53.952;27.612;2022-12-20T15:54:42;27.3;22.7;16.3
53698;PMS7003;39591;53.952;27.612;2022-12-20T15:59:50;29.5;21.8;15.7
53698;PMS7003;39591;53.952;27.612;2022-12-20T16:04:32;27.9;23.3;16.9
53698;PMS7003;39591;53.952;27.612;2022-12-20T16:10:06;27.6;22;15.3
53698;PMS7003;39591;53.952;27.612;2022-12-20T16:14:58;25.3;20.4;14.8
53698;PMS7003;39591;53.952;27.612;2022-12-20T16:19:52;25;20.6;14.9
53698;PMS7003;39591;53.952;27.612;2022-12-20T16:24:50;24.4;20.2;15.2
53698;PMS7003;39591;53.952;27.612;2022-12-20T16:29:48;25.1;20.6;14.7
53698;PMS7003;39591;53.952;27.612;2022-12-20T16:35:09;25.6;20.5;15
53698;PMS7003;39591;53.952;27.612;2022-12-20T16:39:34;25.5;21.8;15.6
53698;PMS7003;39591;53.952;27.612;2022-12-20T16:44:44;23.2;19.5;14.5
53698;PMS7003;39591;53.952;27.612;2022-12-20T16:49:54;23.8;19.9;13.7
53698;PMS7003;39591;53.952;27.612;2022-12-20T16:54:34;24.9;19.9;14.3
53698;PMS7003;39591;53.952;27.612;2022-12-20T17:00:09;23.9;19.9;13.9
53698;PMS7003;39591;53.952;27.612;2022-12-20T17:05:00;22.2;18.7;13.5
53698;PMS7003;39591;53.952;27.612;2022-12-20T17:09:50;21.8;18;13.2
53698;PMS7003;39591;53.952;27.612;2022-12-20T17:14:44;23.4;20;14.8
53698;PMS7003;39591;53.952;27.612;2022-12-20T17:20:06;22.4;19;14.2
53698;PMS7003;39591;53.952;27.612;2022-12-20T17:25:04;24.1;18.8;13.1
53698;PMS7003;39591;53.952;27.612;2022-12-20T17:29:34;28.9;21.9;15.4
53698;PMS7003;39591;53.952;27.612;2022-12-20T17:34:44;29.7;25.5;18.2
53698;PMS7003;39591;53.952;27.612;2022-12-20T17:40:04;25.5;21.5;15.8
53698;PMS7003;39591;53.952;27.612;2022-12-20T17:44:23;22.9;17.6;11.8
53698;PMS7003;39591;53.952;27.612;2022-12-20T17:49:56;27.8;23.3;16.6
53698;PMS7003;39591;53.952;27.612;2022-12-20T17:54:56;28.8;24.5;17.3
53698;PMS7003;39591;53.952;27.612;2022-12-20T17:59:40;27.9;23.6;16.5
53698;PMS7003;39591;53.952;27.612;2022-12-20T18:04:54;27.6;24;17.1
53698;PMS7003;39591;53.952;27.612;2022-12-20T18:10:02;28.2;23.8;17.4
53698;PMS7003;39591;53.952;27.612;2022-12-20T18:14:56;29.5;24.3;17.6
53698;PMS7003;39591;53.952;27.612;2022-12-20T18:19:22;30.3;24.7;17
53698;PMS7003;39591;53.952;27.612;2022-12-20T18:24:44;28;22.9;16.4
53698;PMS7003;39591;53.952;27.612;2022-12-20T18:30:02;28.5;23.5;15.8
53698;PMS7003;39591;53.952;27.612;2022-12-20T18:34:32;26.7;21.8;15.2
53698;PMS7003;39591;53.952;27.612;2022-12-20T18:39:54;28.1;23;16.5
53698;PMS7003;39591;53.952;27.612;2022-12-20T18:44:54;25.9;21.7;15.6
53698;PMS7003;39591;53.952;27.612;2022-12-20T18:49:22;26.1;22.4;15.7
53698;PMS7003;39591;53.952;27.612;2022-12-20T18:54:52;26.3;20.5;14.2
53698;PMS7003;39591;53.952;27.612;2022-12-20T19:00:05;24.7;20;14.6
53698;PMS7003;39591;53.952;27.612;2022-12-20T19:05:04;22.6;19.1;14
53698;PMS7003;39591;53.952;27.612;2022-12-20T19:09:22;25.2;20.8;14.6
53698;PMS7003;39591;53.952;27.612;2022-12-20T19:14:44;24.9;19.8;14.3
53698;PMS7003;39591;53.952;27.612;2022-12-20T19:20:02;25.7;20.9;15.1
53698;PMS7003;39591;53.952;27.612;2022-12-20T19:24:32;26.8;23.3;16.9
53698;PMS7003;39591;53.952;27.612;2022-12-20T19:29:54;26.6;23.1;16.4
53698;PMS7003;39591;53.952;27.612;2022-12-20T19:34:54;26.6;22.4;16.3
53698;PMS7003;39591;53.952;27.612;2022-12-20T19:39:40;26.4;22.3;16.3
53698;PMS7003;39591;53.952;27.612;2022-12-20T19:44:22;25.7;21.5;15
53698;PMS7003;39591;53.952;27.612;2022-12-20T19:50:05;27;22.3;16
53698;PMS7003;39591;53.952;27.612;2022-12-20T19:55:02;23.3;19.5;13.6
53698;PMS7003;39591;53.952;27.612;2022-12-20T19:59:30;26;21.7;15.1
53698;PMS7003;39591;53.952;27.612;2022-12-20T20:04:44;26.7;22.1;15.3
53698;PMS7003;39591;53.952;27.612;2022-12-20T20:10:02;26.7;21.8;15.3
53698;PMS7003;39591;53.952;27.612;2022-12-20T20:14:32;25.5;20.3;15
53698;PMS7003;39591;53.952;27.612;2022-12-20T20:19:54;24.6;20.4;14.3
53698;PMS7003;39591;53.952;27.612;2022-12-20T20:24:56;22.3;18.3;12.2
53698;PMS7003;39591;53.952;27.612;2022-12-20T20:29:30;24;19.3;14.6
53698;PMS7003;39591;53.952;27.612;2022-12-20T20:34:22;23.7;19.8;14.7
53698;PMS7003;39591;53.952;27.612;2022-12-20T20:40:00;22.9;18.8;13.8
53698;PMS7003;39591;53.952;27.612;2022-12-20T20:45:02;25.2;20.2;14.7
53698;PMS7003;39591;53.952;27.612;2022-12-20T20:49:22;23.8;19.2;13.3
53698;PMS7003;39591;53.952;27.612;2022-12-20T20:54:32;23.4;18.9;13.9
53698;PMS7003;39591;53.952;27.612;2022-12-20T21:00:07;22;18.7;13.2
53698;PMS7003;39591;53.952;27.612;2022-12-20T21:04:22;22.1;17.6;12.9
53698;PMS7003;39591;53.952;27.612;2022-12-20T21:09:54;22.5;19.1;14
53698;PMS7003;39591;53.952;27.612;2022-12-20T21:15:04;22.4;18.6;13
53698;PMS7003;39591;53.952;27.612;2022-12-20T21:19:44;26.3;20.3;14.7
53698;PMS7003;39591;53.952;27.612;2022-12-20T21:24:34;21.6;18.7;13.8
53698;PMS7003;39591;53.952;27.612;2022-12-20T21:30:05;21.9;18.3;13.1
53698;PMS7003;39591;53.952;27.612;2022-12-20T21:35:02;21.9;17.4;12.8
53698;PMS7003;39591;53.952;27.612;2022-12-20T21:39:44;21.9;18.8;13.6
53698;PMS7003;39591;53.952;27.612;2022-12-20T21:44:42;21.8;18.6;13.6
53698;PMS7003;39591;53.952;27.612;2022-12-20T21:49:50;22.8;18.3;12.7
53698;PMS7003;39591;53.952;27.612;2022-12-20T21:54:50;21.4;17.6;12.3
53698;PMS7003;39591;53.952;27.612;2022-12-20T22:00:00;26.4;21.8;14.7
53698;PMS7003;39591;53.952;27.612;2022-12-20T22:04:58;25.7;21.3;15.1
53698;PMS7003;39591;53.952;27.612;2022-12-20T22:09:38;22.8;19.8;13
53698;PMS7003;39591;53.952;27.612;2022-12-20T22:14:22;27;22.2;15.6
53698;PMS7003;39591;53.952;27.612;2022-12-20T22:19:58;25.7;20.9;14.9
53698;PMS7003;39591;53.952;27.612;2022-12-20T22:24:52;24.9;20.5;14.2
53698;PMS7003;39591;53.952;27.612;2022-12-20T22:29:30;25.1;21.9;15.3
53698;PMS7003;39591;53.952;27.612;2022-12-20T22:34:54;26.5;22;15.2
53698;PMS7003;39591;53.952;27.612;2022-12-20T22:39:48;27.7;23;15.5
53698;PMS7003;39591;53.952;27.612;2022-12-20T22:44:50;26.5;21.5;14.9
53698;PMS7003;39591;53.952;27.612;2022-12-20T22:50:02;26.7;22.1;14.5
53698;PMS7003;39591;53.952;27.612;2022-12-20T22:55:02;27.9;23.4;16.3
53698;PMS7003;39591;53.952;27.612;2022-12-20T22:59:36;25.9;22.1;15.2
53698;PMS7003;39591;53.952;27.612;2022-12-20T23:04:42;25.1;20.2;14
53698;PMS7003;39591;53.952;27.612;2022-12-20T23:10:02;21.8;18.9;13
53698;PMS7003;39591;53.952;27.612;2022-12-20T23:14:52;27.2;21.6;14.7
53698;PMS7003;39591;53.952;27.612;2022-12-20T23:19:22;23.6;19.7;13.6
53698;PMS7003;39591;53.952;27.612;2022-12-20T23:24:38;26.5;21;15.2
53698;PMS7003;39591;53.952;27.612;2022-12-20T23:29:50;25;20.8;14.2
53698;PMS7003;39591;53.952;27.612;2022-12-20T23:34:52;26;20.4;14.4
53698;PMS7003;39591;53.952;27.612;2022-12-20T23:40:00;24.4;21.5;14.7
53698;PMS7003;39591;53.952;27.612;2022-12-20T23:45:00;25.4;20.3;13.7
53698;PMS7003;39591;53.952;27.612;2022-12-20T23:49:38;24.4;20.1;13.6
53698;PMS7003;39591;53.952;27.612;2022-12-20T23:54:22;25.7;21.3;15
